sensor_id;sensor_type;location;lat;lon;timestamp;P1;durP1;ratioP1;P2;durP2;ratioP2
56537;SDS011;42435;53.292;6.000;2022-10-18T00:01:05;44.17;;;19.70;;
56537;SDS011;42435;53.292;6.000;2022-10-18T00:03:32;68.00;;;24.02;;
56537;SDS011;42435;53.292;6.000;2022-10-18T00:05:59;48.60;;;20.65;;
56537;SDS011;42435;53.292;6.000;2022-10-18T00:08:25;40.58;;;17.55;;
56537;SDS011;42435;53.292;6.000;2022-10-18T00:10:51;39.10;;;18.23;;
56537;SDS011;42435;53.292;6.000;2022-10-18T00:13:17;147.80;;;25.75;;
56537;SDS011;42435;53.292;6.000;2022-10-18T00:15:50;108.82;;;23.17;;
56537;SDS011;42435;53.292;6.000;2022-10-18T00:18:21;121.18;;;24.08;;
56537;SDS011;42435;53.292;6.000;2022-10-18T00:20:56;44.03;;;17.85;;
56537;SDS011;42435;53.292;6.000;2022-10-18T00:23:22;132.85;;;28.63;;
56537;SDS011;42435;53.292;6.000;2022-10-18T00:25:48;99.55;;;23.38;;
56537;SDS011;42435;53.292;6.000;2022-10-18T00:28:23;136.05;;;25.00;;
56537;SDS011;42435;53.292;6.000;2022-10-18T00:30:48;119.28;;;25.38;;
56537;SDS011;42435;53.292;6.000;2022-10-18T00:33:14;89.95;;;23.00;;
56537;SDS011;42435;53.292;6.000;2022-10-18T00:35:39;71.13;;;18.35;;
56537;SDS011;42435;53.292;6.000;2022-10-18T00:38:07;56.03;;;18.48;;
56537;SDS011;42435;53.292;6.000;2022-10-18T00:40:33;83.15;;;21.30;;
56537;SDS011;42435;53.292;6.000;2022-10-18T00:42:59;53.72;;;16.90;;
56537;SDS011;42435;53.292;6.000;2022-10-18T00:45:24;65.03;;;20.95;;
56537;SDS011;42435;53.292;6.000;2022-10-18T00:47:52;67.55;;;21.45;;
56537;SDS011;42435;53.292;6.000;2022-10-18T00:50:22;47.30;;;18.77;;
56537;SDS011;42435;53.292;6.000;2022-10-18T00:52:54;93.00;;;23.08;;
56537;SDS011;42435;53.292;6.000;2022-10-18T00:55:23;55.42;;;19.48;;
56537;SDS011;42435;53.292;6.000;2022-10-18T00:57:49;55.78;;;20.80;;
56537;SDS011;42435;53.292;6.000;2022-10-18T01:00:16;39.75;;;15.77;;
56537;SDS011;42435;53.292;6.000;2022-10-18T01:02:42;92.50;;;21.90;;
56537;SDS011;42435;53.292;6.000;2022-10-18T01:05:10;103.40;;;23.83;;
56537;SDS011;42435;53.292;6.000;2022-10-18T01:10:36;121.72;;;24.25;;
56537;SDS011;42435;53.292;6.000;2022-10-18T01:13:17;106.65;;;21.33;;
56537;SDS011;42435;53.292;6.000;2022-10-18T01:18:31;87.28;;;21.02;;
56537;SDS011;42435;53.292;6.000;2022-10-18T01:21:24;66.65;;;19.52;;
56537;SDS011;42435;53.292;6.000;2022-10-18T01:32:52;80.43;;;17.92;;
56537;SDS011;42435;53.292;6.000;2022-10-18T01:35:32;183.40;;;26.55;;
56537;SDS011;42435;53.292;6.000;2022-10-18T01:38:02;119.47;;;19.88;;
56537;SDS011;42435;53.292;6.000;2022-10-18T01:40:31;184.30;;;26.30;;
56537;SDS011;42435;53.292;6.000;2022-10-18T01:42:59;126.15;;;20.55;;
56537;SDS011;42435;53.292;6.000;2022-10-18T01:45:26;65.82;;;15.98;;
56537;SDS011;42435;53.292;6.000;2022-10-18T01:47:52;158.93;;;26.95;;
56537;SDS011;42435;53.292;6.000;2022-10-18T01:50:29;175.20;;;25.85;;
56537;SDS011;42435;53.292;6.000;2022-10-18T01:52:59;70.05;;;14.43;;
56537;SDS011;42435;53.292;6.000;2022-10-18T01:55:32;98.13;;;21.33;;
56537;SDS011;42435;53.292;6.000;2022-10-18T01:58:08;92.78;;;20.02;;
56537;SDS011;42435;53.292;6.000;2022-10-18T02:01:04;69.13;;;19.08;;
56537;SDS011;42435;53.292;6.000;2022-10-18T02:03:35;42.97;;;16.13;;
56537;SDS011;42435;53.292;6.000;2022-10-18T02:08:53;178.85;;;23.20;;
56537;SDS011;42435;53.292;6.000;2022-10-18T02:11:23;143.20;;;21.35;;
56537;SDS011;42435;53.292;6.000;2022-10-18T02:13:59;137.95;;;22.55;;
56537;SDS011;42435;53.292;6.000;2022-10-18T02:16:34;197.13;;;26.00;;
56537;SDS011;42435;53.292;6.000;2022-10-18T02:21:57;165.98;;;25.58;;
56537;SDS011;42435;53.292;6.000;2022-10-18T02:24:25;82.78;;;16.25;;
56537;SDS011;42435;53.292;6.000;2022-10-18T02:26:56;72.07;;;16.80;;
56537;SDS011;42435;53.292;6.000;2022-10-18T02:29:22;65.70;;;14.43;;
56537;SDS011;42435;53.292;6.000;2022-10-18T02:31:48;62.25;;;17.00;;
56537;SDS011;42435;53.292;6.000;2022-10-18T02:34:30;83.97;;;20.33;;
56537;SDS011;42435;53.292;6.000;2022-10-18T02:37:01;67.47;;;16.40;;
56537;SDS011;42435;53.292;6.000;2022-10-18T02:39:34;73.20;;;18.70;;
56537;SDS011;42435;53.292;6.000;2022-10-18T02:42:09;99.88;;;19.67;;
56537;SDS011;42435;53.292;6.000;2022-10-18T02:44:36;149.95;;;23.95;;
56537;SDS011;42435;53.292;6.000;2022-10-18T02:47:02;65.15;;;14.95;;
56537;SDS011;42435;53.292;6.000;2022-10-18T02:49:29;141.15;;;18.30;;
56537;SDS011;42435;53.292;6.000;2022-10-18T02:51:54;111.15;;;18.58;;
56537;SDS011;42435;53.292;6.000;2022-10-18T02:54:20;71.05;;;14.95;;
56537;SDS011;42435;53.292;6.000;2022-10-18T02:56:46;70.18;;;15.23;;
56537;SDS011;42435;53.292;6.000;2022-10-18T02:59:12;83.68;;;18.15;;
56537;SDS011;42435;53.292;6.000;2022-10-18T03:01:38;69.07;;;13.45;;
56537;SDS011;42435;53.292;6.000;2022-10-18T03:04:03;35.30;;;11.20;;
56537;SDS011;42435;53.292;6.000;2022-10-18T03:06:29;45.50;;;12.30;;
56537;SDS011;42435;53.292;6.000;2022-10-18T03:08:55;31.08;;;10.98;;
56537;SDS011;42435;53.292;6.000;2022-10-18T03:11:21;35.97;;;11.57;;
56537;SDS011;42435;53.292;6.000;2022-10-18T03:13:47;31.08;;;10.75;;
56537;SDS011;42435;53.292;6.000;2022-10-18T03:16:14;31.73;;;9.38;;
56537;SDS011;42435;53.292;6.000;2022-10-18T03:18:40;31.48;;;10.02;;
56537;SDS011;42435;53.292;6.000;2022-10-18T03:21:05;41.17;;;12.07;;
56537;SDS011;42435;53.292;6.000;2022-10-18T03:23:32;54.47;;;13.02;;
56537;SDS011;42435;53.292;6.000;2022-10-18T03:25:58;44.00;;;12.82;;
56537;SDS011;42435;53.292;6.000;2022-10-18T03:28:23;29.15;;;10.32;;
56537;SDS011;42435;53.292;6.000;2022-10-18T03:30:51;21.45;;;9.80;;
56537;SDS011;42435;53.292;6.000;2022-10-18T03:33:17;23.50;;;11.73;;
56537;SDS011;42435;53.292;6.000;2022-10-18T03:35:43;26.65;;;11.48;;
56537;SDS011;42435;53.292;6.000;2022-10-18T03:38:09;28.83;;;12.68;;
56537;SDS011;42435;53.292;6.000;2022-10-18T03:40:34;14.93;;;9.52;;
56537;SDS011;42435;53.292;6.000;2022-10-18T03:43:00;10.70;;;8.73;;
56537;SDS011;42435;53.292;6.000;2022-10-18T03:45:25;15.77;;;10.27;;
56537;SDS011;42435;53.292;6.000;2022-10-18T03:47:52;17.52;;;9.48;;
56537;SDS011;42435;53.292;6.000;2022-10-18T03:50:17;17.40;;;10.57;;
56537;SDS011;42435;53.292;6.000;2022-10-18T03:52:45;26.77;;;12.35;;
56537;SDS011;42435;53.292;6.000;2022-10-18T03:55:13;27.90;;;11.50;;
56537;SDS011;42435;53.292;6.000;2022-10-18T03:57:39;27.08;;;10.82;;
56537;SDS011;42435;53.292;6.000;2022-10-18T04:00:05;28.73;;;11.38;;
56537;SDS011;42435;53.292;6.000;2022-10-18T04:02:31;43.20;;;12.40;;
56537;SDS011;42435;53.292;6.000;2022-10-18T04:04:56;46.80;;;11.75;;
56537;SDS011;42435;53.292;6.000;2022-10-18T04:07:22;100.72;;;16.17;;
56537;SDS011;42435;53.292;6.000;2022-10-18T04:09:48;61.10;;;14.25;;
56537;SDS011;42435;53.292;6.000;2022-10-18T04:12:14;50.40;;;12.45;;
56537;SDS011;42435;53.292;6.000;2022-10-18T04:14:39;60.55;;;13.23;;
56537;SDS011;42435;53.292;6.000;2022-10-18T04:17:05;63.67;;;14.25;;
56537;SDS011;42435;53.292;6.000;2022-10-18T04:19:30;33.70;;;12.15;;
56537;SDS011;42435;53.292;6.000;2022-10-18T04:21:56;30.02;;;12.02;;
56537;SDS011;42435;53.292;6.000;2022-10-18T04:24:21;19.48;;;9.05;;
56537;SDS011;42435;53.292;6.000;2022-10-18T04:26:47;26.92;;;11.77;;
56537;SDS011;42435;53.292;6.000;2022-10-18T04:29:13;23.65;;;10.32;;
56537;SDS011;42435;53.292;6.000;2022-10-18T04:31:38;22.58;;;10.73;;
56537;SDS011;42435;53.292;6.000;2022-10-18T04:34:07;31.90;;;12.27;;
56537;SDS011;42435;53.292;6.000;2022-10-18T04:36:36;23.73;;;10.63;;
56537;SDS011;42435;53.292;6.000;2022-10-18T04:39:02;26.73;;;12.82;;
56537;SDS011;42435;53.292;6.000;2022-10-18T04:41:28;26.08;;;11.85;;
56537;SDS011;42435;53.292;6.000;2022-10-18T04:43:56;18.90;;;9.75;;
56537;SDS011;42435;53.292;6.000;2022-10-18T04:46:22;18.23;;;9.73;;
56537;SDS011;42435;53.292;6.000;2022-10-18T04:48:47;19.67;;;10.02;;
56537;SDS011;42435;53.292;6.000;2022-10-18T04:54:16;19.90;;;11.45;;
56537;SDS011;42435;53.292;6.000;2022-10-18T04:56:42;24.02;;;12.25;;
56537;SDS011;42435;53.292;6.000;2022-10-18T04:59:10;23.70;;;11.13;;
56537;SDS011;42435;53.292;6.000;2022-10-18T05:01:36;44.42;;;12.60;;
56537;SDS011;42435;53.292;6.000;2022-10-18T05:04:02;36.50;;;11.80;;
56537;SDS011;42435;53.292;6.000;2022-10-18T05:06:27;35.78;;;11.32;;
56537;SDS011;42435;53.292;6.000;2022-10-18T05:08:53;26.98;;;10.30;;
56537;SDS011;42435;53.292;6.000;2022-10-18T05:11:18;21.75;;;10.52;;
56537;SDS011;42435;53.292;6.000;2022-10-18T05:13:44;31.10;;;12.02;;
56537;SDS011;42435;53.292;6.000;2022-10-18T05:16:13;20.50;;;9.98;;
56537;SDS011;42435;53.292;6.000;2022-10-18T05:18:42;24.38;;;10.48;;
56537;SDS011;42435;53.292;6.000;2022-10-18T05:21:08;20.10;;;10.48;;
56537;SDS011;42435;53.292;6.000;2022-10-18T05:23:38;23.50;;;11.10;;
56537;SDS011;42435;53.292;6.000;2022-10-18T05:26:07;17.10;;;9.20;;
56537;SDS011;42435;53.292;6.000;2022-10-18T05:28:33;17.02;;;9.85;;
56537;SDS011;42435;53.292;6.000;2022-10-18T05:31:03;13.82;;;8.30;;
56537;SDS011;42435;53.292;6.000;2022-10-18T05:33:30;15.73;;;8.80;;
56537;SDS011;42435;53.292;6.000;2022-10-18T05:35:56;14.80;;;9.10;;
56537;SDS011;42435;53.292;6.000;2022-10-18T05:38:22;18.23;;;9.10;;
56537;SDS011;42435;53.292;6.000;2022-10-18T05:40:48;17.63;;;10.02;;
56537;SDS011;42435;53.292;6.000;2022-10-18T05:43:17;13.80;;;8.57;;
56537;SDS011;42435;53.292;6.000;2022-10-18T05:45:46;18.67;;;9.85;;
56537;SDS011;42435;53.292;6.000;2022-10-18T05:48:17;19.63;;;9.90;;
56537;SDS011;42435;53.292;6.000;2022-10-18T05:50:46;13.38;;;8.18;;
56537;SDS011;42435;53.292;6.000;2022-10-18T05:53:12;20.25;;;9.55;;
56537;SDS011;42435;53.292;6.000;2022-10-18T05:55:37;14.80;;;7.82;;
56537;SDS011;42435;53.292;6.000;2022-10-18T05:58:03;18.23;;;9.57;;
56537;SDS011;42435;53.292;6.000;2022-10-18T06:00:28;15.02;;;8.88;;
56537;SDS011;42435;53.292;6.000;2022-10-18T06:02:54;15.05;;;8.07;;
56537;SDS011;42435;53.292;6.000;2022-10-18T06:05:23;11.95;;;8.07;;
56537;SDS011;42435;53.292;6.000;2022-10-18T06:07:48;15.75;;;8.15;;
56537;SDS011;42435;53.292;6.000;2022-10-18T06:10:14;14.95;;;8.00;;
56537;SDS011;42435;53.292;6.000;2022-10-18T06:12:42;14.45;;;7.88;;
56537;SDS011;42435;53.292;6.000;2022-10-18T06:15:08;12.73;;;7.95;;
56537;SDS011;42435;53.292;6.000;2022-10-18T06:17:34;13.65;;;7.88;;
56537;SDS011;42435;53.292;6.000;2022-10-18T06:20:02;13.43;;;8.07;;
56537;SDS011;42435;53.292;6.000;2022-10-18T06:22:31;14.52;;;8.73;;
56537;SDS011;42435;53.292;6.000;2022-10-18T06:24:57;15.20;;;7.85;;
56537;SDS011;42435;53.292;6.000;2022-10-18T06:27:23;14.30;;;7.45;;
56537;SDS011;42435;53.292;6.000;2022-10-18T06:29:51;14.27;;;7.45;;
56537;SDS011;42435;53.292;6.000;2022-10-18T06:32:16;16.25;;;8.15;;
56537;SDS011;42435;53.292;6.000;2022-10-18T06:34:44;18.88;;;9.25;;
56537;SDS011;42435;53.292;6.000;2022-10-18T06:37:09;13.05;;;8.45;;
56537;SDS011;42435;53.292;6.000;2022-10-18T06:39:35;12.10;;;6.93;;
56537;SDS011;42435;53.292;6.000;2022-10-18T06:42:00;10.95;;;6.82;;
56537;SDS011;42435;53.292;6.000;2022-10-18T06:44:26;15.32;;;8.15;;
56537;SDS011;42435;53.292;6.000;2022-10-18T06:46:51;17.52;;;8.50;;
56537;SDS011;42435;53.292;6.000;2022-10-18T06:49:17;14.65;;;8.18;;
56537;SDS011;42435;53.292;6.000;2022-10-18T06:51:47;13.80;;;6.78;;
56537;SDS011;42435;53.292;6.000;2022-10-18T06:54:13;11.68;;;6.82;;
56537;SDS011;42435;53.292;6.000;2022-10-18T06:56:39;12.23;;;7.15;;
56537;SDS011;42435;53.292;6.000;2022-10-18T06:59:05;11.23;;;6.95;;
56537;SDS011;42435;53.292;6.000;2022-10-18T07:01:31;12.52;;;7.13;;
56537;SDS011;42435;53.292;6.000;2022-10-18T07:03:56;11.48;;;6.47;;
56537;SDS011;42435;53.292;6.000;2022-10-18T07:06:22;15.43;;;7.07;;
56537;SDS011;42435;53.292;6.000;2022-10-18T07:08:48;16.48;;;7.43;;
56537;SDS011;42435;53.292;6.000;2022-10-18T07:11:18;13.75;;;7.50;;
56537;SDS011;42435;53.292;6.000;2022-10-18T07:13:48;16.17;;;7.57;;
56537;SDS011;42435;53.292;6.000;2022-10-18T07:16:14;10.75;;;6.20;;
56537;SDS011;42435;53.292;6.000;2022-10-18T07:18:42;14.05;;;7.10;;
56537;SDS011;42435;53.292;6.000;2022-10-18T07:21:10;14.75;;;7.65;;
56537;SDS011;42435;53.292;6.000;2022-10-18T07:23:53;13.45;;;6.90;;
56537;SDS011;42435;53.292;6.000;2022-10-18T07:26:28;13.35;;;6.45;;
56537;SDS011;42435;53.292;6.000;2022-10-18T07:28:56;21.65;;;7.65;;
56537;SDS011;42435;53.292;6.000;2022-10-18T07:31:40;14.55;;;6.63;;
56537;SDS011;42435;53.292;6.000;2022-10-18T07:34:07;17.05;;;6.85;;
56537;SDS011;42435;53.292;6.000;2022-10-18T07:36:35;17.08;;;6.57;;
56537;SDS011;42435;53.292;6.000;2022-10-18T07:39:00;16.25;;;5.90;;
56537;SDS011;42435;53.292;6.000;2022-10-18T07:41:26;17.27;;;6.63;;
56537;SDS011;42435;53.292;6.000;2022-10-18T07:43:57;14.88;;;5.43;;
56537;SDS011;42435;53.292;6.000;2022-10-18T07:46:26;14.52;;;6.25;;
56537;SDS011;42435;53.292;6.000;2022-10-18T07:48:52;17.83;;;6.30;;
56537;SDS011;42435;53.292;6.000;2022-10-18T07:51:22;14.25;;;6.45;;
56537;SDS011;42435;53.292;6.000;2022-10-18T07:53:47;14.75;;;5.68;;
56537;SDS011;42435;53.292;6.000;2022-10-18T07:56:14;11.48;;;5.18;;
56537;SDS011;42435;53.292;6.000;2022-10-18T07:58:41;16.13;;;5.32;;
56537;SDS011;42435;53.292;6.000;2022-10-18T08:01:08;13.13;;;5.70;;
56537;SDS011;42435;53.292;6.000;2022-10-18T08:03:34;15.75;;;5.18;;
56537;SDS011;42435;53.292;6.000;2022-10-18T08:06:03;13.15;;;5.30;;
56537;SDS011;42435;53.292;6.000;2022-10-18T08:08:32;14.90;;;5.60;;
56537;SDS011;42435;53.292;6.000;2022-10-18T08:11:02;14.00;;;4.90;;
56537;SDS011;42435;53.292;6.000;2022-10-18T08:13:30;12.63;;;4.55;;
56537;SDS011;42435;53.292;6.000;2022-10-18T08:16:03;8.35;;;4.70;;
56537;SDS011;42435;53.292;6.000;2022-10-18T08:21:00;9.93;;;3.42;;
56537;SDS011;42435;53.292;6.000;2022-10-18T08:23:27;14.15;;;4.55;;
56537;SDS011;42435;53.292;6.000;2022-10-18T08:25:53;11.23;;;3.65;;
56537;SDS011;42435;53.292;6.000;2022-10-18T08:28:22;13.68;;;3.72;;
56537;SDS011;42435;53.292;6.000;2022-10-18T08:30:47;14.88;;;3.35;;
56537;SDS011;42435;53.292;6.000;2022-10-18T08:33:13;11.15;;;3.95;;
56537;SDS011;42435;53.292;6.000;2022-10-18T08:35:38;11.10;;;3.13;;
56537;SDS011;42435;53.292;6.000;2022-10-18T08:38:04;12.75;;;4.82;;
56537;SDS011;42435;53.292;6.000;2022-10-18T08:40:34;11.85;;;2.85;;
56537;SDS011;42435;53.292;6.000;2022-10-18T08:45:44;10.95;;;2.45;;
56537;SDS011;42435;53.292;6.000;2022-10-18T08:48:18;9.65;;;3.03;;
56537;SDS011;42435;53.292;6.000;2022-10-18T08:50:47;14.38;;;3.78;;
56537;SDS011;42435;53.292;6.000;2022-10-18T08:56:13;14.95;;;3.20;;
56537;SDS011;42435;53.292;6.000;2022-10-18T08:58:40;11.63;;;3.63;;
56537;SDS011;42435;53.292;6.000;2022-10-18T09:03:53;12.32;;;2.50;;
56537;SDS011;42435;53.292;6.000;2022-10-18T09:06:34;15.07;;;2.53;;
56537;SDS011;42435;53.292;6.000;2022-10-18T09:14:25;11.75;;;3.25;;
56537;SDS011;42435;53.292;6.000;2022-10-18T09:28:18;16.65;;;2.80;;
56537;SDS011;42435;53.292;6.000;2022-10-18T09:33:37;13.07;;;2.58;;
56537;SDS011;42435;53.292;6.000;2022-10-18T09:36:17;11.73;;;2.38;;
56537;SDS011;42435;53.292;6.000;2022-10-18T09:39:10;10.85;;;2.58;;
56537;SDS011;42435;53.292;6.000;2022-10-18T09:41:51;15.15;;;2.72;;
56537;SDS011;42435;53.292;6.000;2022-10-18T09:44:24;9.45;;;2.05;;
56537;SDS011;42435;53.292;6.000;2022-10-18T09:46:56;10.50;;;2.30;;
56537;SDS011;42435;53.292;6.000;2022-10-18T09:49:41;10.80;;;1.73;;
56537;SDS011;42435;53.292;6.000;2022-10-18T09:52:21;8.73;;;1.70;;
56537;SDS011;42435;53.292;6.000;2022-10-18T09:55:04;9.90;;;2.08;;
56537;SDS011;42435;53.292;6.000;2022-10-18T09:57:40;10.43;;;1.60;;
56537;SDS011;42435;53.292;6.000;2022-10-18T10:00:20;9.85;;;1.85;;
56537;SDS011;42435;53.292;6.000;2022-10-18T10:02:52;8.57;;;2.03;;
56537;SDS011;42435;53.292;6.000;2022-10-18T10:05:17;9.10;;;1.63;;
56537;SDS011;42435;53.292;6.000;2022-10-18T10:07:44;13.63;;;2.42;;
56537;SDS011;42435;53.292;6.000;2022-10-18T10:15:53;16.70;;;3.35;;
56537;SDS011;42435;53.292;6.000;2022-10-18T10:18:33;14.60;;;2.70;;
56537;SDS011;42435;53.292;6.000;2022-10-18T10:21:02;10.02;;;1.98;;
56537;SDS011;42435;53.292;6.000;2022-10-18T10:23:44;8.90;;;2.38;;
56537;SDS011;42435;53.292;6.000;2022-10-18T10:26:22;12.20;;;2.20;;
56537;SDS011;42435;53.292;6.000;2022-10-18T10:28:56;15.25;;;2.40;;
56537;SDS011;42435;53.292;6.000;2022-10-18T10:31:28;10.27;;;1.58;;
56537;SDS011;42435;53.292;6.000;2022-10-18T10:34:00;8.18;;;1.73;;
56537;SDS011;42435;53.292;6.000;2022-10-18T10:36:30;11.77;;;2.30;;
56537;SDS011;42435;53.292;6.000;2022-10-18T10:39:01;11.75;;;2.65;;
56537;SDS011;42435;53.292;6.000;2022-10-18T10:41:29;11.27;;;1.77;;
56537;SDS011;42435;53.292;6.000;2022-10-18T10:43:55;10.32;;;2.17;;
56537;SDS011;42435;53.292;6.000;2022-10-18T10:46:21;13.85;;;2.42;;
56537;SDS011;42435;53.292;6.000;2022-10-18T10:48:51;12.50;;;2.08;;
56537;SDS011;42435;53.292;6.000;2022-10-18T10:51:30;11.68;;;1.95;;
56537;SDS011;42435;53.292;6.000;2022-10-18T10:54:14;13.27;;;2.30;;
56537;SDS011;42435;53.292;6.000;2022-10-18T10:57:04;6.80;;;1.80;;
56537;SDS011;42435;53.292;6.000;2022-10-18T10:59:44;14.75;;;1.85;;
56537;SDS011;42435;53.292;6.000;2022-10-18T11:02:30;10.77;;;2.45;;
56537;SDS011;42435;53.292;6.000;2022-10-18T11:05:14;11.50;;;2.22;;
56537;SDS011;42435;53.292;6.000;2022-10-18T11:07:48;10.20;;;2.40;;
56537;SDS011;42435;53.292;6.000;2022-10-18T11:10:27;9.45;;;2.20;;
56537;SDS011;42435;53.292;6.000;2022-10-18T11:15:48;9.35;;;1.77;;
56537;SDS011;42435;53.292;6.000;2022-10-18T11:18:33;6.43;;;1.67;;
56537;SDS011;42435;53.292;6.000;2022-10-18T11:21:11;9.98;;;1.77;;
56537;SDS011;42435;53.292;6.000;2022-10-18T11:23:47;7.03;;;1.42;;
56537;SDS011;42435;53.292;6.000;2022-10-18T11:34:59;7.07;;;1.55;;
56537;SDS011;42435;53.292;6.000;2022-10-18T11:46:17;7.90;;;1.75;;
56537;SDS011;42435;53.292;6.000;2022-10-18T11:49:16;11.02;;;1.73;;
56537;SDS011;42435;53.292;6.000;2022-10-18T11:52:09;10.05;;;1.98;;
56537;SDS011;42435;53.292;6.000;2022-10-18T12:05:51;11.43;;;1.90;;
56537;SDS011;42435;53.292;6.000;2022-10-18T12:10:55;9.32;;;2.00;;
56537;SDS011;42435;53.292;6.000;2022-10-18T12:14:13;9.82;;;1.67;;
56537;SDS011;42435;53.292;6.000;2022-10-18T12:16:13;7.90;;;2.28;;
56537;SDS011;42435;53.292;6.000;2022-10-18T12:18:49;7.65;;;1.88;;
56537;SDS011;42435;53.292;6.000;2022-10-18T12:21:24;9.45;;;2.40;;
56537;SDS011;42435;53.292;6.000;2022-10-18T12:23:54;11.25;;;2.15;;
56537;SDS011;42435;53.292;6.000;2022-10-18T12:26:26;12.65;;;1.88;;
56537;SDS011;42435;53.292;6.000;2022-10-18T12:29:16;8.27;;;2.35;;
56537;SDS011;42435;53.292;6.000;2022-10-18T12:37:09;9.55;;;2.08;;
56537;SDS011;42435;53.292;6.000;2022-10-18T12:39:40;9.70;;;1.80;;
56537;SDS011;42435;53.292;6.000;2022-10-18T12:47:43;10.65;;;1.90;;
56537;SDS011;42435;53.292;6.000;2022-10-18T12:50:33;10.10;;;2.08;;
56537;SDS011;42435;53.292;6.000;2022-10-18T12:55:43;9.02;;;2.20;;
56537;SDS011;42435;53.292;6.000;2022-10-18T13:00:55;12.15;;;1.67;;
56537;SDS011;42435;53.292;6.000;2022-10-18T13:03:36;10.43;;;2.10;;
56537;SDS011;42435;53.292;6.000;2022-10-18T13:06:14;9.73;;;1.83;;
56537;SDS011;42435;53.292;6.000;2022-10-18T13:08:40;7.63;;;1.80;;
56537;SDS011;42435;53.292;6.000;2022-10-18T13:18:54;7.97;;;1.75;;
56537;SDS011;42435;53.292;6.000;2022-10-18T13:21:39;7.00;;;2.08;;
56537;SDS011;42435;53.292;6.000;2022-10-18T13:32:27;6.95;;;1.60;;
56537;SDS011;42435;53.292;6.000;2022-10-18T13:35:00;6.93;;;1.88;;
56537;SDS011;42435;53.292;6.000;2022-10-18T13:37:26;6.95;;;1.50;;
56537;SDS011;42435;53.292;6.000;2022-10-18T13:48:42;8.50;;;1.20;;
56537;SDS011;42435;53.292;6.000;2022-10-18T13:51:00;6.43;;;1.98;;
56537;SDS011;42435;53.292;6.000;2022-10-18T13:53:55;6.93;;;1.50;;
56537;SDS011;42435;53.292;6.000;2022-10-18T13:59:25;9.40;;;1.33;;
56537;SDS011;42435;53.292;6.000;2022-10-18T14:11:05;4.68;;;1.40;;
56537;SDS011;42435;53.292;6.000;2022-10-18T14:13:47;8.32;;;1.40;;
56537;SDS011;42435;53.292;6.000;2022-10-18T14:19:47;5.60;;;1.13;;
56537;SDS011;42435;53.292;6.000;2022-10-18T14:22:22;5.15;;;1.20;;
56537;SDS011;42435;53.292;6.000;2022-10-18T14:24:56;7.40;;;1.30;;
56537;SDS011;42435;53.292;6.000;2022-10-18T14:27:23;5.47;;;1.27;;
56537;SDS011;42435;53.292;6.000;2022-10-18T14:30:08;5.97;;;1.35;;
56537;SDS011;42435;53.292;6.000;2022-10-18T14:32:41;4.80;;;1.10;;
56537;SDS011;42435;53.292;6.000;2022-10-18T14:35:17;4.15;;;1.13;;
56537;SDS011;42435;53.292;6.000;2022-10-18T14:38:02;7.43;;;1.67;;
56537;SDS011;42435;53.292;6.000;2022-10-18T14:43:09;8.40;;;1.50;;
56537;SDS011;42435;53.292;6.000;2022-10-18T14:45:46;5.40;;;1.70;;
56537;SDS011;42435;53.292;6.000;2022-10-18T14:48:16;8.75;;;2.97;;
56537;SDS011;42435;53.292;6.000;2022-10-18T14:50:47;6.03;;;1.23;;
56537;SDS011;42435;53.292;6.000;2022-10-18T14:53:23;5.50;;;1.25;;
56537;SDS011;42435;53.292;6.000;2022-10-18T14:55:57;5.75;;;1.60;;
56537;SDS011;42435;53.292;6.000;2022-10-18T14:58:31;5.18;;;1.70;;
56537;SDS011;42435;53.292;6.000;2022-10-18T15:00:59;6.50;;;1.75;;
56537;SDS011;42435;53.292;6.000;2022-10-18T15:03:33;6.15;;;1.50;;
56537;SDS011;42435;53.292;6.000;2022-10-18T15:06:00;5.40;;;2.15;;
56537;SDS011;42435;53.292;6.000;2022-10-18T15:08:39;10.27;;;2.28;;
56537;SDS011;42435;53.292;6.000;2022-10-18T15:11:06;6.75;;;2.28;;
56537;SDS011;42435;53.292;6.000;2022-10-18T15:13:37;9.20;;;2.20;;
56537;SDS011;42435;53.292;6.000;2022-10-18T15:16:16;6.75;;;2.92;;
56537;SDS011;42435;53.292;6.000;2022-10-18T15:18:43;4.63;;;1.63;;
56537;SDS011;42435;53.292;6.000;2022-10-18T15:21:37;8.23;;;2.00;;
56537;SDS011;42435;53.292;6.000;2022-10-18T15:24:39;5.57;;;1.40;;
56537;SDS011;42435;53.292;6.000;2022-10-18T15:29:55;7.22;;;2.35;;
56537;SDS011;42435;53.292;6.000;2022-10-18T15:32:35;8.25;;;2.70;;
56537;SDS011;42435;53.292;6.000;2022-10-18T15:35:11;7.90;;;3.15;;
56537;SDS011;42435;53.292;6.000;2022-10-18T15:38:02;6.28;;;1.70;;
56537;SDS011;42435;53.292;6.000;2022-10-18T15:40:57;5.30;;;2.17;;
56537;SDS011;42435;53.292;6.000;2022-10-18T15:43:36;7.18;;;1.70;;
56537;SDS011;42435;53.292;6.000;2022-10-18T15:46:03;8.38;;;2.72;;
56537;SDS011;42435;53.292;6.000;2022-10-18T15:48:36;4.93;;;1.60;;
56537;SDS011;42435;53.292;6.000;2022-10-18T15:51:06;7.18;;;2.63;;
56537;SDS011;42435;53.292;6.000;2022-10-18T15:53:54;5.47;;;3.20;;
56537;SDS011;42435;53.292;6.000;2022-10-18T15:56:30;8.80;;;3.67;;
56537;SDS011;42435;53.292;6.000;2022-10-18T15:58:56;8.20;;;3.17;;
56537;SDS011;42435;53.292;6.000;2022-10-18T16:01:41;8.15;;;1.50;;
56537;SDS011;42435;53.292;6.000;2022-10-18T16:04:27;10.02;;;2.25;;
56537;SDS011;42435;53.292;6.000;2022-10-18T16:06:55;7.75;;;2.50;;
56537;SDS011;42435;53.292;6.000;2022-10-18T16:09:22;3.35;;;1.77;;
56537;SDS011;42435;53.292;6.000;2022-10-18T16:11:53;6.63;;;1.63;;
56537;SDS011;42435;53.292;6.000;2022-10-18T16:14:19;4.35;;;1.30;;
56537;SDS011;42435;53.292;6.000;2022-10-18T16:16:46;8.75;;;1.50;;
56537;SDS011;42435;53.292;6.000;2022-10-18T16:19:18;6.85;;;1.45;;
56537;SDS011;42435;53.292;6.000;2022-10-18T16:21:46;4.90;;;1.25;;
56537;SDS011;42435;53.292;6.000;2022-10-18T16:24:12;6.80;;;1.45;;
56537;SDS011;42435;53.292;6.000;2022-10-18T16:26:38;6.10;;;2.17;;
56537;SDS011;42435;53.292;6.000;2022-10-18T16:29:04;4.22;;;1.42;;
56537;SDS011;42435;53.292;6.000;2022-10-18T16:31:33;4.25;;;1.10;;
56537;SDS011;42435;53.292;6.000;2022-10-18T16:33:59;6.65;;;1.40;;
56537;SDS011;42435;53.292;6.000;2022-10-18T16:36:27;4.68;;;1.30;;
56537;SDS011;42435;53.292;6.000;2022-10-18T16:38:54;6.15;;;0.90;;
56537;SDS011;42435;53.292;6.000;2022-10-18T16:41:21;5.78;;;1.13;;
56537;SDS011;42435;53.292;6.000;2022-10-18T16:43:48;5.95;;;2.17;;
56537;SDS011;42435;53.292;6.000;2022-10-18T16:46:15;8.02;;;2.50;;
56537;SDS011;42435;53.292;6.000;2022-10-18T16:48:43;4.53;;;1.63;;
56537;SDS011;42435;53.292;6.000;2022-10-18T16:51:09;7.03;;;2.20;;
56537;SDS011;42435;53.292;6.000;2022-10-18T16:53:35;6.43;;;1.70;;
56537;SDS011;42435;53.292;6.000;2022-10-18T16:56:02;4.28;;;1.80;;
56537;SDS011;42435;53.292;6.000;2022-10-18T16:58:30;5.30;;;1.70;;
56537;SDS011;42435;53.292;6.000;2022-10-18T17:00:57;8.35;;;3.20;;
56537;SDS011;42435;53.292;6.000;2022-10-18T17:03:32;7.03;;;1.38;;
56537;SDS011;42435;53.292;6.000;2022-10-18T17:06:00;9.10;;;3.05;;
56537;SDS011;42435;53.292;6.000;2022-10-18T17:08:27;6.97;;;3.22;;
56537;SDS011;42435;53.292;6.000;2022-10-18T17:10:55;4.75;;;1.70;;
56537;SDS011;42435;53.292;6.000;2022-10-18T17:13:23;5.60;;;1.52;;
56537;SDS011;42435;53.292;6.000;2022-10-18T17:15:50;5.60;;;1.98;;
56537;SDS011;42435;53.292;6.000;2022-10-18T17:18:19;7.93;;;3.47;;
56537;SDS011;42435;53.292;6.000;2022-10-18T17:20:53;4.38;;;1.70;;
56537;SDS011;42435;53.292;6.000;2022-10-18T17:23:18;8.50;;;3.00;;
56537;SDS011;42435;53.292;6.000;2022-10-18T17:25:44;3.78;;;2.28;;
56537;SDS011;42435;53.292;6.000;2022-10-18T17:28:20;2.88;;;1.50;;